createdAt,value
2022-08-30T00:00:40.046Z,100309.78
2022-08-30T00:03:14.801Z,100293.66
2022-08-30T00:05:45.485Z,100297.66
2022-08-30T00:08:15.154Z,100301.84
2022-08-30T00:10:44.282Z,100298.63
2022-08-30T00:13:14.938Z,100305.78
2022-08-30T00:15:44.040Z,100305.56
2022-08-30T00:18:15.845Z,100310.50
2022-08-30T00:20:45.628Z,100303.69
2022-08-30T00:23:15.063Z,100248.44
2022-08-30T00:25:44.638Z,100305.78
2022-08-30T00:28:13.871Z,100255.03
2022-08-30T00:30:43.530Z,100307.84
2022-08-30T00:33:15.550Z,100306.31
2022-08-30T00:35:44.835Z,100301.47
2022-08-30T00:38:14.967Z,100284.13
2022-08-30T00:40:45.898Z,100300.72
2022-08-30T00:43:18.138Z,100298.75
2022-08-30T00:45:48.427Z,100288.91
2022-08-30T00:48:19.040Z,100303.91
2022-08-30T00:50:50.708Z,100318.56
2022-08-30T00:53:23.178Z,100290.44
2022-08-30T00:55:53.613Z,100297.94
2022-08-30T00:58:28.272Z,100314.09
2022-08-30T01:00:59.690Z,100306.59
2022-08-30T01:03:31.650Z,100312.53
2022-08-30T01:06:02.808Z,100320.00
2022-08-30T01:08:31.967Z,100317.00
2022-08-30T01:11:01.498Z,100321.41
2022-08-30T01:13:31.710Z,100313.22
2022-08-30T01:16:01.515Z,100315.25
2022-08-30T01:18:33.176Z,100324.97
2022-08-30T01:21:10.827Z,100317.38
2022-08-30T01:23:44.271Z,100330.03
2022-08-30T01:26:15.973Z,100331.72
2022-08-30T01:28:48.017Z,100329.97
2022-08-30T01:31:17.397Z,100335.41
2022-08-30T01:33:46.551Z,100326.22
2022-08-30T01:36:15.897Z,100316.16
2022-08-30T01:38:49.257Z,100300.28
2022-08-30T01:41:21.525Z,100315.75
2022-08-30T01:43:52.308Z,100315.22
2022-08-30T01:46:24.667Z,100302.34
2022-08-30T01:48:56.145Z,100319.25
2022-08-30T01:51:27.670Z,100312.69
2022-08-30T01:53:58.334Z,100298.81
2022-08-30T01:56:29.050Z,100308.66
2022-08-30T01:59:02.410Z,100315.66
2022-08-30T02:01:34.151Z,100319.00
2022-08-30T02:04:03.804Z,100334.47
2022-08-30T02:06:33.009Z,100333.19
2022-08-30T02:09:03.283Z,100317.28
2022-08-30T02:11:32.502Z,100332.00
2022-08-30T02:14:01.425Z,100338.31
2022-08-30T02:16:30.507Z,100325.53
2022-08-30T02:19:00.308Z,100339.38
2022-08-30T02:21:32.146Z,100332.63
2022-08-30T02:24:02.582Z,100338.44
2022-08-30T02:26:31.504Z,100332.25
2022-08-30T02:29:01.447Z,100330.66
2022-08-30T02:31:30.333Z,100318.56
2022-08-30T02:33:59.204Z,100330.03
2022-08-30T02:36:28.193Z,100332.22
2022-08-30T02:38:56.994Z,100344.00
2022-08-30T02:41:27.156Z,100331.72
2022-08-30T02:43:58.591Z,100339.06
2022-08-30T02:46:28.399Z,100330.13
2022-08-30T02:49:23.767Z,100339.47
2022-08-30T02:51:51.742Z,100341.72
2022-08-30T02:54:20.851Z,100352.72
2022-08-30T02:56:51.821Z,100360.78
2022-08-30T02:59:21.085Z,100354.59
2022-08-30T03:01:50.217Z,100340.28
2022-08-30T03:04:20.307Z,100365.66
2022-08-30T03:06:56.006Z,100368.25
2022-08-30T03:09:24.790Z,100378.09
2022-08-30T03:11:55.123Z,100368.63
2022-08-30T03:14:24.297Z,100371.59
2022-08-30T03:16:53.444Z,100360.09
2022-08-30T03:19:22.765Z,100383.59
2022-08-30T03:21:51.613Z,100361.31
2022-08-30T03:24:20.719Z,100360.03
2022-08-30T03:26:49.616Z,100326.16
2022-08-30T03:29:19.842Z,100387.41
2022-08-30T03:31:53.182Z,100380.88
2022-08-30T03:34:23.774Z,100383.63
2022-08-30T03:36:53.675Z,100388.16
2022-08-30T03:39:24.794Z,100396.28
2022-08-30T03:41:54.044Z,100401.34
2022-08-30T03:44:24.411Z,100409.25
2022-08-30T03:46:53.668Z,100399.94
2022-08-30T03:49:22.628Z,100405.72
2022-08-30T03:51:52.179Z,100413.41
2022-08-30T03:54:21.110Z,100417.69
2022-08-30T03:56:50.251Z,100420.50
2022-08-30T03:59:19.524Z,100396.19
2022-08-30T04:01:49.729Z,100434.34
2022-08-30T04:04:21.125Z,100427.63
2022-08-30T04:06:50.701Z,100441.16
2022-08-30T04:09:40.514Z,100453.28
2022-08-30T04:12:09.733Z,100424.59
2022-08-30T04:14:38.679Z,100441.28
2022-08-30T04:17:08.981Z,100363.47
2022-08-30T04:19:37.709Z,100443.47
2022-08-30T04:22:07.085Z,100443.78
2022-08-30T04:24:38.526Z,100452.78
2022-08-30T04:27:07.787Z,100433.72
2022-08-30T04:29:36.947Z,100437.44
2022-08-30T04:32:06.466Z,100440.00
2022-08-30T04:34:36.625Z,100443.31
2022-08-30T04:37:05.657Z,100436.41
2022-08-30T04:39:40.177Z,100425.06
2022-08-30T04:42:10.860Z,100434.38
2022-08-30T04:44:39.735Z,100425.94
2022-08-30T04:47:10.412Z,100432.88
2022-08-30T04:49:40.976Z,100430.25
2022-08-30T04:52:11.065Z,100429.25
2022-08-30T04:54:39.906Z,100434.03
2022-08-30T04:57:08.851Z,100434.41
2022-08-30T04:59:39.080Z,100426.44
2022-08-30T05:02:09.568Z,100440.50
2022-08-30T05:05:01.432Z,100429.41
2022-08-30T05:07:30.709Z,100428.47
2022-08-30T05:10:00.351Z,100429.09
2022-08-30T05:12:29.534Z,100340.94
2022-08-30T05:14:58.643Z,100439.69
2022-08-30T05:17:27.662Z,100439.31
2022-08-30T05:19:57.891Z,100445.81
2022-08-30T05:22:26.734Z,100433.00
2022-08-30T05:24:55.680Z,100439.94
2022-08-30T05:27:24.660Z,100437.78
2022-08-30T05:29:53.867Z,100422.00
2022-08-30T05:32:22.915Z,100438.81
2022-08-30T05:34:52.727Z,100435.84
2022-08-30T05:37:23.081Z,100434.69
2022-08-30T05:39:52.079Z,100419.16
2022-08-30T05:42:21.235Z,100425.09
2022-08-30T05:44:53.616Z,100424.47
2022-08-30T05:47:23.570Z,100427.28
2022-08-30T05:49:52.718Z,100430.81
2022-08-30T05:52:23.215Z,100421.34
2022-08-30T05:54:55.790Z,100394.59
2022-08-30T05:57:24.561Z,100432.81
2022-08-30T05:59:53.359Z,100429.59
2022-08-30T06:02:22.164Z,100434.53
2022-08-30T06:04:51.095Z,100441.81
2022-08-30T06:07:23.158Z,100427.56
2022-08-30T06:09:51.942Z,100436.03
2022-08-30T06:12:21.010Z,100420.31
2022-08-30T06:14:49.839Z,100430.59
2022-08-30T06:17:23.058Z,100411.63
2022-08-30T06:19:51.933Z,100434.50
2022-08-30T06:22:22.083Z,100429.38
2022-08-30T06:24:57.585Z,100418.78
2022-08-30T06:27:26.984Z,100431.34
2022-08-30T06:29:55.809Z,100427.69
2022-08-30T06:32:24.764Z,100444.00
2022-08-30T06:34:53.478Z,100428.81
2022-08-30T06:37:29.792Z,100432.75
2022-08-30T06:39:59.785Z,100432.03
2022-08-30T06:42:32.346Z,100428.50
2022-08-30T06:45:01.618Z,100434.06
2022-08-30T06:47:30.806Z,100418.88
2022-08-30T06:50:00.625Z,100411.66
2022-08-30T06:52:31.612Z,100421.97
2022-08-30T06:55:00.748Z,100445.44
2022-08-30T06:57:29.645Z,100443.41
2022-08-30T06:59:59.758Z,100441.91
2022-08-30T07:02:29.710Z,100441.91
2022-08-30T07:04:58.832Z,100428.91
2022-08-30T07:07:28.109Z,100437.09
2022-08-30T07:09:59.729Z,100448.38
2022-08-30T07:12:29.138Z,100448.59
2022-08-30T07:14:58.088Z,100441.69
2022-08-30T07:17:44.191Z,100453.84
2022-08-30T07:20:13.590Z,100449.25
2022-08-30T07:22:42.551Z,100453.84
2022-08-30T07:25:12.840Z,100455.09
2022-08-30T07:27:43.203Z,100449.69
2022-08-30T07:30:13.480Z,100455.16
2022-08-30T07:32:42.925Z,100440.69
2022-08-30T07:35:12.191Z,100445.06
2022-08-30T07:37:41.199Z,100449.00
2022-08-30T07:40:13.201Z,100451.22
2022-08-30T07:42:42.426Z,100450.91
2022-08-30T07:45:12.827Z,100444.00
2022-08-30T07:47:42.687Z,100456.78
2022-08-30T07:50:11.819Z,100454.72
2022-08-30T07:52:41.067Z,100447.13
2022-08-30T07:55:12.134Z,100448.75
2022-08-30T07:57:42.045Z,100452.69
2022-08-30T08:00:11.960Z,100465.16
2022-08-30T08:02:42.001Z,100451.72
2022-08-30T08:05:15.176Z,100435.72
2022-08-30T08:07:46.249Z,100455.97
2022-08-30T08:10:17.764Z,100456.31
2022-08-30T08:12:46.449Z,100452.28
2022-08-30T08:15:16.065Z,100425.59
2022-08-30T08:17:44.993Z,100432.84
2022-08-30T08:20:13.825Z,100431.94
2022-08-30T08:22:42.675Z,100441.56
2022-08-30T08:25:11.461Z,100451.19
2022-08-30T08:27:41.875Z,100454.19
2022-08-30T08:30:11.957Z,100435.97
2022-08-30T08:32:43.519Z,100450.53
2022-08-30T08:35:12.804Z,100445.94
2022-08-30T08:37:42.625Z,100436.63
2022-08-30T08:40:15.624Z,100453.63
2022-08-30T08:42:52.545Z,100447.44
2022-08-30T08:45:34.161Z,100446.34
2022-08-30T08:48:09.649Z,100442.25
2022-08-30T08:51:02.793Z,100442.09
2022-08-30T08:53:46.629Z,100437.59
2022-08-30T08:56:18.690Z,100428.88
2022-08-30T08:58:51.883Z,100442.91
2022-08-30T09:01:24.121Z,100399.56
2022-08-30T09:03:53.742Z,100390.00
2022-08-30T09:06:45.078Z,100432.88
2022-08-30T09:09:15.639Z,100430.91
2022-08-30T09:11:44.812Z,100454.97
2022-08-30T09:14:20.519Z,100453.28
2022-08-30T09:16:58.100Z,100451.84
2022-08-30T09:19:39.920Z,100453.44
2022-08-30T09:22:34.593Z,100442.44
2022-08-30T09:25:06.096Z,100445.78
2022-08-30T09:27:37.238Z,100449.06
2022-08-30T09:30:14.860Z,100448.78
2022-08-30T09:32:51.449Z,100446.81
2022-08-30T09:35:23.869Z,100444.97
2022-08-30T09:37:58.803Z,100437.63
2022-08-30T09:40:34.665Z,100444.44
2022-08-30T09:43:11.903Z,100447.69
2022-08-30T09:45:44.215Z,100441.16
2022-08-30T09:48:30.269Z,100451.75
2022-08-30T09:51:20.888Z,100453.91
2022-08-30T09:54:17.088Z,100445.19
2022-08-30T09:56:57.946Z,100430.16
2022-08-30T09:59:41.638Z,100441.72
2022-08-30T10:02:48.328Z,100441.41
2022-08-30T10:05:26.430Z,100434.91
2022-08-30T10:08:03.119Z,100440.06
2022-08-30T10:10:39.362Z,100425.53
2022-08-30T10:13:38.447Z,100434.16
2022-08-30T10:16:17.920Z,100443.09
2022-08-30T10:19:00.885Z,100444.31
2022-08-30T10:21:38.462Z,100420.78
2022-08-30T10:24:11.931Z,100437.75
2022-08-30T10:26:46.858Z,100430.53
2022-08-30T10:29:23.509Z,100437.78
2022-08-30T10:31:59.721Z,100440.56
2022-08-30T10:34:40.099Z,100444.47
2022-08-30T10:37:13.465Z,100446.63
2022-08-30T10:39:50.477Z,100442.38
2022-08-30T10:42:22.695Z,100440.84
2022-08-30T10:44:59.119Z,100395.56
2022-08-30T10:47:37.535Z,100427.75
2022-08-30T10:50:19.870Z,100438.28
2022-08-30T10:52:54.239Z,100430.84
2022-08-30T10:55:27.182Z,100438.59
2022-08-30T10:58:02.250Z,100361.03
2022-08-30T11:00:37.506Z,100430.72
2022-08-30T11:03:36.377Z,100423.25
2022-08-30T11:06:19.608Z,100414.22
2022-08-30T11:09:09.995Z,100422.34
2022-08-30T11:11:53.510Z,100421.13
2022-08-30T11:14:25.416Z,100416.09
2022-08-30T11:16:57.710Z,100420.22
2022-08-30T11:19:32.211Z,100410.94
2022-08-30T11:22:15.214Z,100412.72
2022-08-30T11:25:09.905Z,100417.09
2022-08-30T11:27:51.990Z,100409.03
2022-08-30T11:30:52.851Z,100413.06
2022-08-30T11:33:44.986Z,100413.56
2022-08-30T11:36:48.219Z,100408.03
2022-08-30T11:45:46.583Z,100402.00
2022-08-30T11:48:54.277Z,100405.94
2022-08-30T11:55:03.825Z,100397.47
2022-08-30T11:57:46.586Z,100382.19
2022-08-30T12:00:31.506Z,100379.25
2022-08-30T12:03:06.468Z,100394.22
2022-08-30T12:05:53.058Z,100391.06
2022-08-30T12:08:47.263Z,100386.94
2022-08-30T12:12:02.534Z,100390.63
2022-08-30T12:14:57.684Z,100376.19
2022-08-30T12:17:50.706Z,100376.63
2022-08-30T12:20:25.275Z,100375.16
2022-08-30T12:22:55.481Z,100387.88
2022-08-30T12:25:32.073Z,100392.03
2022-08-30T12:28:12.939Z,100381.63
2022-08-30T12:30:46.515Z,100375.31
2022-08-30T12:33:29.323Z,100372.13
2022-08-30T12:35:59.790Z,100381.81
2022-08-30T12:38:30.917Z,100373.94
2022-08-30T12:41:05.705Z,100360.22
2022-08-30T12:43:41.355Z,100376.34
2022-08-30T12:46:16.185Z,100374.00
2022-08-30T12:48:46.312Z,100353.47
2022-08-30T12:51:31.525Z,100312.75
2022-08-30T12:54:16.548Z,100366.91
2022-08-30T12:56:56.051Z,100369.81
2022-08-30T12:59:59.635Z,100325.00
2022-08-30T13:02:44.633Z,100342.16
2022-08-30T13:05:33.335Z,100367.97
2022-08-30T13:08:21.311Z,100362.94
2022-08-30T13:10:55.288Z,100347.00
2022-08-30T13:13:37.539Z,100351.56
2022-08-30T13:16:29.425Z,100351.81
2022-08-30T13:19:27.760Z,100338.38
2022-08-30T13:21:58.291Z,100349.13
2022-08-30T13:24:27.309Z,100337.25
2022-08-30T13:26:57.939Z,100338.63
2022-08-30T13:29:28.184Z,100333.69
2022-08-30T13:31:58.193Z,100335.41
2022-08-30T13:34:33.140Z,100337.19
2022-08-30T13:37:02.701Z,100328.06
2022-08-30T13:39:32.026Z,100322.75
2022-08-30T13:44:52.407Z,100330.28
2022-08-30T13:47:38.121Z,100330.59
2022-08-30T13:50:09.849Z,100320.47
2022-08-30T13:52:38.558Z,100311.25
2022-08-30T13:55:08.882Z,100315.06
2022-08-30T13:57:55.062Z,100330.56
2022-08-30T14:00:25.436Z,100322.72
2022-08-30T14:02:57.629Z,100301.03
2022-08-30T14:11:12.735Z,100309.59
2022-08-30T14:16:33.029Z,100305.97
2022-08-30T14:19:02.964Z,100312.53
2022-08-30T14:21:33.402Z,100309.78
2022-08-30T14:24:02.293Z,100302.22
2022-08-30T14:26:33.676Z,100316.16
2022-08-30T14:29:03.108Z,100312.91
2022-08-30T14:31:32.717Z,100303.78
2022-08-30T14:34:04.236Z,100300.13
2022-08-30T14:36:38.226Z,100300.63
2022-08-30T14:39:10.728Z,100286.63
2022-08-30T14:41:46.787Z,100288.56
2022-08-30T14:44:18.012Z,100271.97
2022-08-30T14:46:47.426Z,100285.31
2022-08-30T14:49:17.881Z,100285.16
2022-08-30T14:51:48.565Z,100283.81
2022-08-30T14:54:18.986Z,100284.91
2022-08-30T14:56:48.293Z,100274.47
2022-08-30T14:59:18.425Z,100266.25
2022-08-30T15:01:48.027Z,100266.72
2022-08-30T15:04:18.098Z,100266.47
2022-08-30T15:06:52.534Z,100254.66
2022-08-30T15:09:24.779Z,100262.28
2022-08-30T15:11:55.203Z,100267.09
2022-08-30T15:14:28.548Z,100264.16
2022-08-30T15:16:58.355Z,100266.28
2022-08-30T15:19:28.910Z,100258.44
2022-08-30T15:22:03.508Z,100261.44
2022-08-30T15:24:33.576Z,100273.91
2022-08-30T15:27:04.203Z,100271.19
2022-08-30T15:29:35.150Z,100270.56
2022-08-30T15:32:06.304Z,100269.41
2022-08-30T15:34:35.963Z,100243.50
2022-08-30T15:37:07.868Z,100228.38
2022-08-30T15:39:37.957Z,100254.06
2022-08-30T15:42:10.100Z,100251.53
2022-08-30T15:44:39.743Z,100267.66
2022-08-30T15:47:09.130Z,100188.91
2022-08-30T15:49:38.409Z,100248.44
2022-08-30T15:52:08.928Z,100251.44
2022-08-30T15:54:37.930Z,100250.38
2022-08-30T15:57:06.892Z,100240.34
2022-08-30T15:59:35.937Z,100243.19
2022-08-30T16:02:05.248Z,100243.63
2022-08-30T16:04:34.610Z,100235.06
2022-08-30T16:07:03.740Z,100243.78
2022-08-30T16:09:35.201Z,100235.88
2022-08-30T16:12:07.993Z,100242.53
2022-08-30T16:14:43.333Z,100246.34
2022-08-30T16:17:14.119Z,100249.44
2022-08-30T16:19:43.317Z,100256.69
2022-08-30T16:22:12.316Z,100246.56
2022-08-30T16:24:46.986Z,100240.72
2022-08-30T16:27:16.251Z,100252.53
2022-08-30T16:29:45.353Z,100274.44
2022-08-30T16:32:14.195Z,100263.38
2022-08-30T16:34:43.230Z,100259.53
2022-08-30T16:37:12.081Z,100257.78
2022-08-30T16:39:41.405Z,100267.47
2022-08-30T16:42:20.943Z,100261.69
2022-08-30T16:44:50.497Z,100274.44
2022-08-30T16:47:21.505Z,100285.66
2022-08-30T16:49:51.999Z,100281.03
2022-08-30T16:52:22.390Z,100264.84
2022-08-30T16:54:52.306Z,100288.28
2022-08-30T16:57:23.864Z,100241.44
2022-08-30T16:59:52.886Z,100298.81
2022-08-30T17:02:22.562Z,100290.53
2022-08-30T17:04:53.155Z,100293.16
2022-08-30T17:07:22.953Z,100309.53
2022-08-30T17:09:52.811Z,100309.56
2022-08-30T17:12:23.709Z,100307.13
2022-08-30T17:14:53.552Z,100314.50
2022-08-30T17:17:22.619Z,100318.97
2022-08-30T17:19:52.245Z,100306.44
2022-08-30T17:22:22.287Z,100327.03
2022-08-30T17:24:52.411Z,100324.91
2022-08-30T17:27:23.158Z,100321.63
2022-08-30T17:29:52.375Z,100328.16
2022-08-30T17:32:21.561Z,100330.91
2022-08-30T17:34:53.639Z,100332.41
2022-08-30T17:37:25.991Z,100334.72
2022-08-30T17:39:58.422Z,100254.28
2022-08-30T17:42:29.833Z,100339.75
2022-08-30T17:45:03.586Z,100348.97
2022-08-30T17:47:37.417Z,100348.56
2022-08-30T17:50:09.075Z,100346.25
2022-08-30T17:52:38.808Z,100351.94
2022-08-30T17:55:11.171Z,100357.19
2022-08-30T17:57:44.042Z,100355.50
2022-08-30T18:00:15.850Z,100368.31
2022-08-30T18:02:45.277Z,100363.72
2022-08-30T18:05:14.151Z,100364.53
2022-08-30T18:07:43.078Z,100354.91
2022-08-30T18:10:13.403Z,100377.13
2022-08-30T18:12:44.002Z,100375.03
2022-08-30T18:15:15.984Z,100364.97
2022-08-30T18:17:47.803Z,100376.69
2022-08-30T18:20:18.324Z,100367.88
2022-08-30T18:22:48.392Z,100370.44
2022-08-30T18:25:27.334Z,100375.44
2022-08-30T18:27:58.322Z,100374.59
2022-08-30T18:30:34.054Z,100352.78
2022-08-30T18:33:07.075Z,100364.13
2022-08-30T18:35:36.473Z,100374.19
2022-08-30T18:38:06.728Z,100372.69
2022-08-30T18:40:36.109Z,100376.44
2022-08-30T18:43:09.897Z,100380.47
2022-08-30T18:45:42.870Z,100369.31
2022-08-30T18:48:12.211Z,100382.72
2022-08-30T18:50:43.955Z,100382.09
2022-08-30T18:53:14.078Z,100368.69
2022-08-30T18:55:58.623Z,100385.03
2022-08-30T18:58:29.258Z,100380.66
2022-08-30T19:00:58.317Z,100374.59
2022-08-30T19:03:27.783Z,100370.53
2022-08-30T19:06:05.085Z,100375.03
2022-08-30T19:08:34.600Z,100371.25
2022-08-30T19:11:05.050Z,100374.59
2022-08-30T19:13:38.985Z,100372.09
2022-08-30T19:16:12.186Z,100375.88
2022-08-30T19:18:42.401Z,100382.56
2022-08-30T19:21:13.535Z,100371.97
2022-08-30T19:23:43.505Z,100319.06
2022-08-30T19:26:12.349Z,100383.13
2022-08-30T19:28:42.784Z,100381.72
2022-08-30T19:31:12.383Z,100378.28
2022-08-30T19:33:42.303Z,100381.41
2022-08-30T19:36:11.756Z,100385.81
2022-08-30T19:38:44.393Z,100367.72
2022-08-30T19:41:14.602Z,100357.13
2022-08-30T19:43:45.068Z,100379.91
2022-08-30T19:46:18.611Z,100383.69
2022-08-30T19:48:47.828Z,100377.41
2022-08-30T19:51:17.316Z,100378.38
2022-08-30T19:53:46.193Z,100371.00
2022-08-30T19:56:15.193Z,100374.72
2022-08-30T19:58:45.587Z,100379.66
2022-08-30T20:01:33.203Z,100380.22
2022-08-30T20:04:03.444Z,100394.28
2022-08-30T20:06:33.769Z,100381.72
2022-08-30T20:09:05.351Z,100362.47
2022-08-30T20:11:42.367Z,100370.84
2022-08-30T20:14:13.563Z,100382.41
2022-08-30T20:16:43.160Z,100374.38
2022-08-30T20:19:18.579Z,100383.97
2022-08-30T20:21:50.941Z,100387.53
2022-08-30T20:24:20.471Z,100383.34
2022-08-30T20:26:49.520Z,100372.16
2022-08-30T20:29:20.465Z,100387.28
2022-08-30T20:31:52.023Z,100386.69
2022-08-30T20:34:27.228Z,100382.88
2022-08-30T20:36:56.350Z,100382.88
2022-08-30T20:39:26.951Z,100384.56
2022-08-30T20:41:55.809Z,100386.13
2022-08-30T20:44:26.058Z,100383.81
2022-08-30T20:46:54.982Z,100393.19
2022-08-30T20:49:24.251Z,100397.91
2022-08-30T20:51:54.213Z,100395.59
2022-08-30T20:54:24.066Z,100393.59
2022-08-30T20:56:53.083Z,100390.09
2022-08-30T20:59:21.942Z,100392.19
2022-08-30T21:01:52.070Z,100396.53
2022-08-30T21:04:24.044Z,100390.41
2022-08-30T21:06:53.130Z,100375.75
2022-08-30T21:09:22.156Z,100375.44
2022-08-30T21:11:51.170Z,100386.38
2022-08-30T21:14:21.891Z,100385.91
2022-08-30T21:16:52.408Z,100386.19
2022-08-30T21:19:21.345Z,100390.69
2022-08-30T21:21:50.195Z,100390.19
2022-08-30T21:24:18.889Z,100391.00
2022-08-30T21:26:47.722Z,100387.53
2022-08-30T21:29:16.409Z,100390.50
2022-08-30T21:31:45.299Z,100378.41
2022-08-30T21:34:17.836Z,100382.28
2022-08-30T21:36:46.079Z,100379.63
2022-08-30T21:39:21.464Z,100372.88
2022-08-30T21:41:54.495Z,100278.28
2022-08-30T21:44:26.206Z,100373.47
2022-08-30T21:46:56.362Z,100381.19
2022-08-30T21:49:26.492Z,100375.84
2022-08-30T21:51:56.606Z,100354.38
2022-08-30T21:54:31.179Z,100383.28
2022-08-30T21:57:02.067Z,100368.09
2022-08-30T21:59:31.055Z,100377.47
2022-08-30T22:02:01.061Z,100377.34
2022-08-30T22:04:31.951Z,100377.22
2022-08-30T22:07:02.332Z,100373.00
2022-08-30T22:09:31.396Z,100365.75
2022-08-30T22:12:00.768Z,100368.69
2022-08-30T22:14:29.683Z,100371.53
2022-08-30T22:16:59.041Z,100368.81
2022-08-30T22:19:28.352Z,100362.31
2022-08-30T22:22:04.342Z,100370.53
2022-08-30T22:24:33.994Z,100365.13
2022-08-30T22:27:05.206Z,100369.50
2022-08-30T22:29:35.085Z,100364.31
2022-08-30T22:32:04.651Z,100366.38
2022-08-30T22:34:34.306Z,100332.69
2022-08-30T22:37:04.985Z,100365.72
2022-08-30T22:39:34.079Z,100366.53
2022-08-30T22:42:03.241Z,100376.25
2022-08-30T22:44:32.352Z,100358.19
2022-08-30T22:47:02.094Z,100363.47
2022-08-30T22:49:31.160Z,100368.78
2022-08-30T22:52:00.945Z,100368.59
2022-08-30T22:54:33.319Z,100366.22
2022-08-30T22:57:04.470Z,100367.63
2022-08-30T22:59:33.995Z,100305.19
2022-08-30T23:02:03.372Z,100376.31
2022-08-30T23:04:33.425Z,100368.91
2022-08-30T23:07:02.411Z,100364.63
2022-08-30T23:09:32.515Z,100367.72
2022-08-30T23:12:01.518Z,100365.81
2022-08-30T23:14:30.306Z,100358.13
2022-08-30T23:16:59.462Z,100366.03
2022-08-30T23:19:28.440Z,100363.59
2022-08-30T23:21:57.570Z,100370.50
2022-08-30T23:24:49.160Z,100373.09
2022-08-30T23:27:37.011Z,100372.34
2022-08-30T23:30:24.084Z,100370.88
2022-08-30T23:33:11.532Z,100362.84
2022-08-30T23:35:57.839Z,100359.94
2022-08-30T23:38:44.278Z,100340.94
2022-08-30T23:41:34.077Z,100362.09
2022-08-30T23:44:22.308Z,100359.72
2022-08-30T23:47:08.602Z,100348.03
2022-08-30T23:49:54.829Z,100359.09
2022-08-30T23:52:41.238Z,100367.03
2022-08-30T23:55:27.813Z,100356.63
2022-08-30T23:58:13.870Z,100300.03
